createdAt,value
2022-10-20T00:01:10.181Z,13.85
2022-10-20T00:03:37.619Z,13.83
2022-10-20T00:06:23.183Z,13.82
2022-10-20T00:08:52.498Z,13.74
2022-10-20T00:11:21.228Z,13.73
2022-10-20T00:13:50.198Z,13.66
2022-10-20T00:16:17.412Z,13.66
2022-10-20T00:18:44.816Z,13.63
2022-10-20T00:21:17.100Z,13.65
2022-10-20T00:23:45.114Z,13.53
2022-10-20T00:26:15.559Z,13.31
2022-10-20T00:28:43.135Z,13.03
2022-10-20T00:31:11.376Z,12.96
2022-10-20T00:33:38.441Z,12.94
2022-10-20T00:36:07.734Z,13.02
2022-10-20T00:38:35.610Z,13.09
2022-10-20T00:41:06.148Z,13.19
2022-10-20T00:43:45.113Z,13.32
2022-10-20T00:46:15.429Z,13.40
2022-10-20T00:48:45.564Z,13.40
2022-10-20T00:51:16.441Z,13.40
2022-10-20T00:53:45.523Z,13.49
2022-10-20T00:56:12.734Z,13.63
2022-10-20T00:58:39.870Z,13.72
2022-10-20T01:01:07.218Z,13.82
2022-10-20T01:03:45.820Z,13.92
2022-10-20T01:06:19.745Z,14.04
2022-10-20T01:08:47.280Z,14.14
2022-10-20T01:11:45.718Z,13.93
2022-10-20T01:14:31.369Z,13.67
2022-10-20T01:17:20.495Z,13.29
2022-10-20T01:20:05.832Z,13.19
2022-10-20T01:22:33.208Z,13.24
2022-10-20T01:25:22.568Z,13.26
2022-10-20T01:27:56.260Z,13.06
2022-10-20T01:30:23.960Z,13.05
2022-10-20T01:32:59.920Z,12.96
2022-10-20T01:35:48.186Z,12.94
2022-10-20T01:38:18.261Z,13.02
2022-10-20T01:40:52.930Z,13.20
2022-10-20T01:43:23.579Z,13.20
2022-10-20T01:45:54.160Z,13.05
2022-10-20T01:48:25.945Z,12.99
2022-10-20T01:50:53.233Z,12.98
2022-10-20T01:53:20.384Z,12.96
2022-10-20T01:55:51.980Z,12.97
2022-10-20T01:58:46.673Z,13.01
2022-10-20T02:01:36.494Z,12.85
2022-10-20T02:04:07.413Z,12.59
2022-10-20T02:06:36.910Z,12.35
2022-10-20T02:09:07.218Z,12.33
2022-10-20T02:11:44.719Z,12.38
2022-10-20T02:14:16.142Z,12.31
2022-10-20T02:17:03.017Z,12.37
2022-10-20T02:19:35.188Z,12.47
2022-10-20T02:22:04.509Z,12.52
2022-10-20T02:24:35.974Z,12.54
2022-10-20T02:27:08.877Z,12.45
2022-10-20T02:29:42.323Z,12.34
2022-10-20T02:32:12.627Z,12.27
2022-10-20T02:34:42.401Z,12.24
2022-10-20T02:37:10.629Z,11.90
2022-10-20T02:39:37.504Z,11.85
2022-10-20T02:42:05.016Z,11.82
2022-10-20T02:44:32.212Z,11.85
2022-10-20T02:46:59.292Z,11.79
2022-10-20T02:49:27.383Z,11.75
2022-10-20T02:51:54.737Z,11.74
2022-10-20T02:54:21.891Z,11.72
2022-10-20T02:56:48.957Z,11.66
2022-10-20T02:59:19.881Z,11.65
2022-10-20T03:01:47.517Z,11.57
2022-10-20T03:04:15.185Z,11.47
2022-10-20T03:06:42.521Z,11.52
2022-10-20T03:09:09.329Z,11.61
2022-10-20T03:11:36.434Z,11.62
2022-10-20T03:14:03.974Z,11.69
2022-10-20T03:16:31.183Z,11.78
2022-10-20T03:19:01.544Z,11.85
2022-10-20T03:21:31.993Z,11.72
2022-10-20T03:23:58.711Z,11.55
2022-10-20T03:26:25.844Z,11.39
2022-10-20T03:28:52.888Z,11.37
2022-10-20T03:31:20.055Z,11.13
2022-10-20T03:33:46.796Z,11.21
2022-10-20T03:36:14.781Z,11.39
2022-10-20T03:38:43.215Z,11.63
2022-10-20T03:41:11.105Z,11.81
2022-10-20T03:43:43.134Z,11.92
2022-10-20T03:46:11.870Z,12.07
2022-10-20T03:48:39.747Z,12.13
2022-10-20T03:51:09.703Z,12.13
2022-10-20T03:53:36.445Z,12.16
2022-10-20T03:56:13.161Z,12.17
2022-10-20T03:58:40.157Z,12.16
2022-10-20T04:01:09.469Z,12.15
2022-10-20T04:03:36.875Z,12.16
2022-10-20T04:06:03.746Z,12.17
2022-10-20T04:08:30.959Z,12.11
2022-10-20T04:10:58.591Z,12.18
2022-10-20T04:13:25.933Z,12.25
2022-10-20T04:15:52.822Z,12.06
2022-10-20T04:18:20.132Z,11.79
2022-10-20T04:20:48.049Z,11.78
2022-10-20T04:23:15.333Z,11.78
2022-10-20T04:25:47.756Z,11.82
2022-10-20T04:28:16.910Z,11.86
2022-10-20T04:30:44.147Z,11.96
2022-10-20T04:33:12.711Z,11.93
2022-10-20T04:35:40.012Z,11.82
2022-10-20T04:38:07.435Z,11.82
2022-10-20T04:40:34.613Z,11.85
2022-10-20T04:43:01.777Z,11.76
2022-10-20T04:45:28.913Z,11.69
2022-10-20T04:47:56.252Z,11.43
2022-10-20T04:50:23.043Z,11.41
2022-10-20T04:53:06.625Z,11.32
2022-10-20T04:55:34.403Z,11.28
2022-10-20T04:58:01.300Z,11.29
2022-10-20T05:00:28.380Z,11.25
2022-10-20T05:02:55.269Z,11.11
2022-10-20T05:05:22.166Z,11.07
2022-10-20T05:07:48.960Z,11.12
2022-10-20T05:10:15.759Z,11.10
2022-10-20T05:12:42.809Z,11.16
2022-10-20T05:15:11.357Z,11.20
2022-10-20T05:17:38.113Z,11.25
2022-10-20T05:20:06.352Z,11.37
2022-10-20T05:22:33.218Z,11.48
2022-10-20T05:25:12.797Z,11.52
2022-10-20T05:27:47.711Z,11.61
2022-10-20T05:30:14.465Z,11.75
2022-10-20T05:32:41.521Z,11.81
2022-10-20T05:35:09.025Z,11.84
2022-10-20T05:37:36.248Z,11.71
2022-10-20T05:40:03.713Z,11.66
2022-10-20T05:42:31.542Z,11.68
2022-10-20T05:44:58.369Z,11.75
2022-10-20T05:47:25.409Z,11.82
2022-10-20T05:49:52.628Z,11.88
2022-10-20T05:52:19.747Z,11.93
2022-10-20T05:54:46.565Z,11.95
2022-10-20T05:57:13.853Z,12.03
2022-10-20T05:59:40.665Z,12.09
2022-10-20T06:02:09.963Z,12.13
2022-10-20T06:04:36.988Z,12.29
2022-10-20T06:07:05.906Z,12.41
2022-10-20T06:09:32.904Z,12.51
2022-10-20T06:12:00.179Z,12.62
2022-10-20T06:14:27.104Z,12.69
2022-10-20T06:16:56.993Z,12.83
2022-10-20T06:19:25.190Z,12.95
2022-10-20T06:21:52.867Z,13.10
2022-10-20T06:24:19.959Z,13.22
2022-10-20T06:26:46.827Z,13.33
2022-10-20T06:29:16.123Z,13.46
2022-10-20T06:31:49.085Z,13.60
2022-10-20T06:34:22.048Z,13.71
2022-10-20T06:36:49.429Z,13.78
2022-10-20T06:39:19.573Z,13.90
2022-10-20T06:41:50.890Z,14.04
2022-10-20T06:44:23.177Z,14.18
2022-10-20T06:46:52.572Z,14.17
2022-10-20T06:49:19.796Z,14.18
2022-10-20T06:51:47.025Z,14.27
2022-10-20T06:54:13.802Z,14.25
2022-10-20T06:56:41.167Z,14.18
2022-10-20T06:59:08.351Z,14.37
2022-10-20T07:01:38.148Z,14.46
2022-10-20T07:04:14.019Z,14.65
2022-10-20T07:06:43.213Z,14.84
2022-10-20T07:09:18.265Z,14.98
2022-10-20T07:11:46.525Z,14.93
2022-10-20T07:14:15.120Z,15.09
2022-10-20T07:16:42.436Z,15.33
2022-10-20T07:19:09.451Z,15.53
2022-10-20T07:21:38.436Z,15.70
2022-10-20T07:24:07.700Z,15.74
2022-10-20T07:26:37.354Z,15.84
2022-10-20T07:29:05.226Z,15.99
2022-10-20T07:31:36.365Z,16.14
2022-10-20T07:34:20.361Z,16.28
2022-10-20T07:36:51.922Z,16.44
2022-10-20T07:39:18.926Z,16.51
2022-10-20T07:41:48.558Z,16.61
2022-10-20T07:44:16.721Z,16.77
2022-10-20T07:46:44.292Z,16.87
2022-10-20T07:51:59.284Z,17.19
2022-10-20T07:54:26.505Z,17.25
2022-10-20T07:56:53.944Z,17.37
2022-10-20T07:59:20.981Z,17.43
2022-10-20T08:01:48.657Z,17.58
2022-10-20T08:04:15.625Z,17.63
2022-10-20T08:06:42.788Z,17.72
2022-10-20T08:09:09.688Z,17.58
2022-10-20T08:11:36.643Z,17.66
2022-10-20T08:14:03.949Z,17.65
2022-10-20T08:16:31.090Z,17.51
2022-10-20T08:19:11.904Z,17.43
2022-10-20T08:21:39.139Z,17.37
2022-10-20T08:24:06.874Z,17.40
2022-10-20T08:26:34.006Z,17.45
2022-10-20T08:29:02.783Z,17.59
2022-10-20T08:31:30.175Z,17.75
2022-10-20T08:33:57.391Z,17.69
2022-10-20T08:36:24.894Z,17.54
2022-10-20T08:38:52.260Z,17.56
2022-10-20T08:41:22.376Z,17.65
2022-10-20T08:43:52.596Z,17.78
2022-10-20T08:46:30.183Z,18.00
2022-10-20T08:48:58.594Z,18.18
2022-10-20T08:51:31.006Z,18.32
2022-10-20T08:54:00.596Z,18.45
2022-10-20T08:56:34.892Z,18.58
2022-10-20T08:59:03.864Z,18.69
2022-10-20T09:01:35.147Z,18.78
2022-10-20T09:04:14.361Z,18.69
2022-10-20T09:06:44.311Z,18.66
2022-10-20T09:09:22.877Z,18.76
2022-10-20T09:11:51.352Z,18.88
2022-10-20T09:14:18.227Z,18.98
2022-10-20T09:17:02.363Z,19.09
2022-10-20T09:19:30.346Z,19.17
2022-10-20T09:22:04.666Z,19.27
2022-10-20T09:24:33.139Z,19.35
2022-10-20T09:27:18.391Z,19.42
2022-10-20T09:29:45.666Z,19.32
2022-10-20T09:32:46.544Z,19.21
2022-10-20T09:35:36.053Z,19.24
2022-10-20T09:38:25.326Z,19.32
2022-10-20T09:41:07.069Z,19.29
2022-10-20T09:43:34.811Z,19.28
2022-10-20T09:46:08.029Z,19.21
2022-10-20T09:48:51.002Z,19.25
2022-10-20T09:51:26.766Z,19.32
2022-10-20T09:54:04.912Z,19.36
2022-10-20T09:56:40.473Z,19.35
2022-10-20T09:59:19.631Z,19.38
2022-10-20T10:02:15.721Z,19.44
2022-10-20T10:04:49.535Z,19.43
2022-10-20T10:07:22.288Z,19.48
2022-10-20T10:10:21.887Z,19.48
2022-10-20T10:12:55.173Z,19.57
2022-10-20T10:15:37.594Z,19.63
2022-10-20T10:18:23.380Z,19.51
2022-10-20T10:21:06.016Z,19.39
2022-10-20T10:23:36.715Z,19.48
2022-10-20T10:26:24.715Z,19.54
2022-10-20T10:28:58.852Z,19.68
2022-10-20T10:31:28.052Z,19.64
2022-10-20T10:34:13.267Z,19.69
2022-10-20T10:36:40.600Z,19.74
2022-10-20T10:39:15.567Z,19.81
2022-10-20T10:42:02.818Z,19.82
2022-10-20T10:44:46.662Z,19.88
2022-10-20T10:47:44.380Z,19.76
2022-10-20T10:50:17.491Z,19.88
2022-10-20T10:52:59.278Z,20.00
2022-10-20T10:55:49.413Z,20.11
2022-10-20T10:58:26.444Z,20.21
2022-10-20T11:00:53.424Z,20.26
2022-10-20T11:03:29.583Z,20.49
2022-10-20T11:06:20.030Z,20.73
2022-10-20T11:08:59.203Z,20.80
2022-10-20T11:11:47.134Z,21.10
2022-10-20T11:14:36.004Z,21.43
2022-10-20T11:17:24.433Z,21.73
2022-10-20T11:20:11.459Z,21.97
2022-10-20T11:22:52.300Z,22.05
2022-10-20T11:25:33.352Z,22.23
2022-10-20T11:28:00.912Z,22.47
2022-10-20T11:30:30.527Z,22.71
2022-10-20T11:33:13.234Z,22.86
2022-10-20T11:35:46.603Z,23.04
2022-10-20T11:38:31.534Z,23.28
2022-10-20T11:41:08.383Z,23.40
2022-10-20T11:43:35.123Z,23.52
2022-10-20T11:46:10.002Z,23.72
2022-10-20T11:48:49.207Z,23.92
2022-10-20T11:51:31.574Z,24.09
2022-10-20T11:54:05.024Z,24.29
2022-10-20T11:56:43.867Z,24.48
2022-10-20T11:59:49.662Z,24.69
2022-10-20T12:02:53.842Z,24.82
2022-10-20T12:06:09.146Z,25.00
2022-10-20T12:08:48.823Z,25.18
2022-10-20T12:11:33.418Z,25.41
2022-10-20T12:14:12.451Z,25.58
2022-10-20T12:16:54.523Z,25.85
2022-10-20T12:19:29.779Z,26.15
2022-10-20T12:22:05.463Z,26.39
2022-10-20T12:24:36.042Z,26.66
2022-10-20T12:27:08.815Z,26.89
2022-10-20T12:29:35.695Z,27.17
2022-10-20T12:32:40.028Z,27.26
2022-10-20T12:35:12.662Z,27.32
2022-10-20T12:37:42.389Z,27.58
2022-10-20T12:40:11.808Z,27.76
2022-10-20T12:42:45.862Z,27.86
2022-10-20T12:45:18.768Z,27.95
2022-10-20T12:47:52.203Z,28.09
2022-10-20T12:50:40.434Z,28.32
2022-10-20T12:53:18.643Z,28.64
2022-10-20T12:55:55.846Z,28.83
2022-10-20T12:58:22.703Z,28.92
2022-10-20T13:00:49.780Z,29.00
2022-10-20T13:03:32.169Z,28.97
2022-10-20T13:06:00.145Z,29.14
2022-10-20T13:08:32.248Z,29.25
2022-10-20T13:11:34.749Z,29.42
2022-10-20T13:14:14.036Z,29.54
2022-10-20T13:17:01.748Z,29.74
2022-10-20T13:19:43.588Z,29.91
2022-10-20T13:22:50.333Z,29.99
2022-10-20T13:25:35.607Z,29.99
2022-10-20T13:28:18.772Z,30.07
2022-10-20T13:31:07.024Z,30.25
2022-10-20T13:34:05.819Z,30.43
2022-10-20T13:36:47.101Z,30.56
2022-10-20T13:39:33.492Z,30.20
2022-10-20T13:42:09.260Z,30.23
2022-10-20T13:44:55.677Z,30.30
2022-10-20T13:47:48.367Z,30.47
2022-10-20T13:50:23.471Z,30.59
2022-10-20T13:52:56.068Z,30.41
2022-10-20T13:55:28.304Z,30.27
2022-10-20T13:58:07.463Z,30.12
2022-10-20T14:00:36.283Z,30.10
2022-10-20T14:03:15.318Z,30.16
2022-10-20T14:05:42.487Z,30.23
2022-10-20T14:08:11.134Z,30.22
2022-10-20T14:10:47.222Z,30.18
2022-10-20T14:13:19.034Z,30.26
2022-10-20T14:15:54.785Z,30.25
2022-10-20T14:18:28.113Z,30.07
2022-10-20T14:21:02.880Z,30.02
2022-10-20T14:23:42.192Z,30.02
2022-10-20T14:26:19.696Z,30.05
2022-10-20T14:28:51.334Z,30.07
2022-10-20T14:31:22.785Z,30.12
2022-10-20T14:33:52.217Z,30.09
2022-10-20T14:36:24.650Z,29.99
2022-10-20T14:38:55.610Z,29.69
2022-10-20T14:41:31.843Z,29.31
2022-10-20T14:44:12.223Z,28.81
2022-10-20T14:46:47.896Z,28.73
2022-10-20T14:49:24.282Z,28.67
2022-10-20T14:52:00.714Z,28.45
2022-10-20T14:54:31.782Z,28.18
2022-10-20T14:57:07.899Z,27.98
2022-10-20T14:59:50.001Z,27.85
2022-10-20T15:02:21.156Z,27.73
2022-10-20T15:04:53.420Z,27.61
2022-10-20T15:07:32.500Z,27.52
2022-10-20T15:10:13.012Z,27.48
2022-10-20T15:12:44.579Z,27.37
2022-10-20T15:15:11.553Z,27.22
2022-10-20T15:17:50.480Z,27.01
2022-10-20T15:20:34.365Z,26.72
2022-10-20T15:23:02.730Z,26.46
2022-10-20T15:25:32.610Z,26.10
2022-10-20T15:27:59.944Z,25.86
2022-10-20T15:30:27.945Z,25.60
2022-10-20T15:32:55.775Z,25.27
2022-10-20T15:35:24.351Z,24.89
2022-10-20T15:37:56.832Z,24.40
2022-10-20T15:40:24.090Z,24.00
2022-10-20T15:42:53.799Z,23.62
2022-10-20T15:45:24.779Z,23.27
2022-10-20T15:47:52.096Z,22.73
2022-10-20T15:50:21.695Z,22.27
2022-10-20T15:52:51.904Z,21.91
2022-10-20T15:55:25.476Z,21.61
2022-10-20T15:57:54.737Z,21.35
2022-10-20T16:00:24.485Z,21.07
2022-10-20T16:02:52.137Z,20.82
2022-10-20T16:05:23.746Z,20.55
2022-10-20T16:07:53.229Z,20.29
2022-10-20T16:10:22.309Z,20.07
2022-10-20T16:12:50.355Z,19.83
2022-10-20T16:15:17.960Z,19.62
2022-10-20T16:17:46.431Z,19.42
2022-10-20T16:20:14.489Z,19.24
2022-10-20T16:22:42.136Z,19.04
2022-10-20T16:25:09.741Z,18.86
2022-10-20T16:27:38.199Z,18.69
2022-10-20T16:30:06.741Z,18.50
2022-10-20T16:32:35.480Z,18.33
2022-10-20T16:35:04.842Z,18.12
2022-10-20T16:37:33.090Z,17.91
2022-10-20T16:40:00.634Z,17.71
2022-10-20T16:42:30.791Z,17.53
2022-10-20T16:44:57.764Z,17.34
2022-10-20T16:47:26.238Z,17.13
2022-10-20T16:49:54.646Z,16.98
2022-10-20T16:52:22.224Z,16.83
2022-10-20T16:54:49.130Z,16.71
2022-10-20T16:57:17.422Z,16.59
2022-10-20T16:59:49.957Z,16.48
2022-10-20T17:02:19.562Z,16.36
2022-10-20T17:04:50.026Z,16.23
2022-10-20T17:07:17.922Z,16.09
2022-10-20T17:09:45.867Z,15.96
2022-10-20T17:12:13.234Z,15.87
2022-10-20T17:14:40.901Z,15.75
2022-10-20T17:17:08.660Z,15.60
2022-10-20T17:19:35.943Z,15.48
2022-10-20T17:22:03.472Z,15.33
2022-10-20T17:24:30.877Z,15.24
2022-10-20T17:26:58.050Z,15.18
2022-10-20T17:29:26.181Z,15.13
2022-10-20T17:31:54.062Z,15.04
2022-10-20T17:34:21.051Z,14.97
2022-10-20T17:36:48.400Z,14.94
2022-10-20T17:39:18.267Z,14.88
2022-10-20T17:41:46.827Z,14.83
2022-10-20T17:44:14.058Z,14.80
2022-10-20T17:46:43.642Z,14.75
2022-10-20T17:49:10.521Z,14.71
2022-10-20T17:51:38.249Z,14.66
2022-10-20T17:54:05.659Z,14.54
2022-10-20T17:56:36.233Z,14.44
2022-10-20T17:59:07.027Z,14.37
2022-10-20T18:01:39.545Z,14.32
2022-10-20T18:04:09.665Z,14.33
2022-10-20T18:06:36.977Z,14.32
2022-10-20T18:09:06.996Z,14.25
2022-10-20T18:11:36.172Z,14.16
2022-10-20T18:14:04.427Z,14.11
2022-10-20T18:16:34.366Z,14.12
2022-10-20T18:19:02.767Z,14.09
2022-10-20T18:21:31.069Z,14.07
2022-10-20T18:24:02.750Z,14.03
2022-10-20T18:26:32.187Z,13.99
2022-10-20T18:29:00.333Z,13.92
2022-10-20T18:31:31.574Z,13.90
2022-10-20T18:34:04.384Z,13.87
2022-10-20T18:36:37.903Z,13.80
2022-10-20T18:39:08.188Z,13.73
2022-10-20T18:41:38.435Z,13.66
2022-10-20T18:44:10.135Z,13.58
2022-10-20T18:46:38.139Z,13.51
2022-10-20T18:49:07.522Z,13.47
2022-10-20T18:51:36.303Z,13.33
2022-10-20T18:54:04.635Z,13.20
2022-10-20T18:56:32.802Z,13.13
2022-10-20T18:59:05.575Z,13.11
2022-10-20T19:01:35.844Z,13.06
2022-10-20T19:04:04.029Z,13.03
2022-10-20T19:06:38.340Z,12.98
2022-10-20T19:09:08.754Z,12.91
2022-10-20T19:11:38.797Z,12.89
2022-10-20T19:14:06.875Z,12.86
2022-10-20T19:16:34.784Z,12.82
2022-10-20T19:19:05.328Z,12.75
2022-10-20T19:21:33.758Z,12.68
2022-10-20T19:24:07.368Z,12.59
2022-10-20T19:26:43.711Z,12.49
2022-10-20T19:29:16.600Z,12.45
2022-10-20T19:31:49.571Z,12.33
2022-10-20T19:34:20.684Z,12.25
2022-10-20T19:36:48.806Z,12.22
2022-10-20T19:39:19.520Z,12.19
2022-10-20T19:41:47.531Z,12.18
2022-10-20T19:44:17.215Z,12.18
2022-10-20T19:46:46.747Z,12.16
2022-10-20T19:49:15.037Z,12.16
2022-10-20T19:51:42.233Z,12.13
2022-10-20T19:54:10.095Z,12.10
2022-10-20T19:56:39.328Z,12.08
2022-10-20T19:59:06.818Z,12.05
2022-10-20T20:01:35.471Z,12.01
2022-10-20T20:04:03.003Z,12.00
2022-10-20T20:06:30.583Z,11.97
2022-10-20T20:09:01.000Z,11.96
2022-10-20T20:11:31.640Z,11.94
2022-10-20T20:14:02.144Z,11.90
2022-10-20T20:16:30.318Z,11.88
2022-10-20T20:18:57.458Z,11.88
2022-10-20T20:21:26.659Z,11.89
2022-10-20T20:23:59.293Z,11.84
2022-10-20T20:26:29.784Z,11.76
2022-10-20T20:28:57.535Z,11.68
2022-10-20T20:31:26.011Z,11.65
2022-10-20T20:33:53.708Z,11.56
2022-10-20T20:36:21.439Z,11.53
2022-10-20T20:38:49.851Z,11.47
2022-10-20T20:41:19.226Z,11.43
2022-10-20T20:43:46.282Z,11.38
2022-10-20T20:46:18.639Z,11.40
2022-10-20T20:48:46.826Z,11.37
2022-10-20T20:51:14.173Z,11.29
2022-10-20T20:53:41.765Z,11.24
2022-10-20T20:56:11.722Z,11.21
2022-10-20T20:58:40.740Z,11.13
2022-10-20T21:01:10.872Z,11.09
2022-10-20T21:03:39.486Z,11.01
2022-10-20T21:06:08.914Z,11.00
2022-10-20T21:08:38.566Z,10.98
2022-10-20T21:11:50.865Z,10.94
2022-10-20T21:14:17.664Z,10.90
2022-10-20T21:16:45.186Z,10.89
2022-10-20T21:19:12.200Z,10.85
2022-10-20T21:21:44.617Z,10.81
2022-10-20T21:24:12.761Z,10.79
2022-10-20T21:26:40.025Z,10.78
2022-10-20T21:29:06.851Z,10.76
2022-10-20T21:31:33.702Z,10.72
2022-10-20T21:34:02.993Z,10.67
2022-10-20T21:36:31.537Z,10.70
2022-10-20T21:38:59.518Z,10.64
2022-10-20T21:41:29.137Z,10.62
2022-10-20T21:43:57.965Z,10.60
2022-10-20T21:46:30.908Z,10.57
2022-10-20T21:49:06.091Z,10.47
2022-10-20T21:51:35.608Z,10.32
2022-10-20T21:54:07.351Z,10.28
2022-10-20T21:56:37.929Z,10.27
2022-10-20T21:59:07.161Z,10.31
2022-10-20T22:01:34.922Z,10.35
2022-10-20T22:04:03.037Z,10.32
2022-10-20T22:06:31.010Z,10.32
2022-10-20T22:08:59.814Z,10.24
2022-10-20T22:11:33.054Z,10.24
2022-10-20T22:14:00.227Z,10.23
2022-10-20T22:16:30.331Z,10.17
2022-10-20T22:19:06.895Z,10.18
2022-10-20T22:21:37.961Z,10.19
2022-10-20T22:24:05.287Z,10.19
2022-10-20T22:26:32.862Z,10.18
2022-10-20T22:29:00.911Z,10.12
2022-10-20T22:31:28.560Z,10.06
2022-10-20T22:33:58.615Z,9.97
2022-10-20T22:36:27.306Z,9.97
2022-10-20T22:38:54.274Z,10.01
2022-10-20T22:41:24.198Z,10.03
2022-10-20T22:43:51.091Z,10.00
2022-10-20T22:46:18.160Z,9.99
2022-10-20T22:48:46.413Z,9.98
2022-10-20T22:51:13.709Z,9.98
2022-10-20T22:53:41.161Z,9.97
2022-10-20T22:56:11.195Z,9.95
2022-10-20T22:58:39.715Z,9.91
2022-10-20T23:01:18.813Z,9.88
2022-10-20T23:03:46.656Z,9.79
2022-10-20T23:06:17.308Z,9.80
2022-10-20T23:08:49.748Z,9.77
2022-10-20T23:11:17.427Z,9.71
2022-10-20T23:13:45.091Z,9.67
2022-10-20T23:16:12.456Z,9.64
2022-10-20T23:18:39.574Z,9.61
2022-10-20T23:21:07.112Z,9.60
2022-10-20T23:23:37.562Z,9.57
2022-10-20T23:26:06.444Z,9.37
2022-10-20T23:28:34.676Z,9.14
2022-10-20T23:31:27.750Z,8.96
2022-10-20T23:33:55.663Z,8.87
2022-10-20T23:36:23.273Z,8.86
2022-10-20T23:38:50.329Z,8.81
2022-10-20T23:41:17.273Z,8.73
2022-10-20T23:43:44.234Z,8.56
2022-10-20T23:46:12.524Z,8.47
2022-10-20T23:48:40.069Z,8.47
2022-10-20T23:51:08.199Z,8.46
2022-10-20T23:53:35.417Z,8.56
2022-10-20T23:56:02.490Z,8.60
2022-10-20T23:58:29.596Z,8.63
